Time;durP1;ratioP1;P1;durP2;ratioP2;P2;SDS_P1;SDS_P2;PMS_P1;PMS_P2;Temp;Humidity;BMP_temperature;BMP_pressure;BME280_temperature;BME280_humidity;BME280_pressure;Samples;Min_cycle;Max_cycle;Signal;HPM_P1;HPM_P2
2023/01/21 00:02:05;;;;;;;61.72;20.95;;;;;;;-2.93;100.00;102370.13;4982838;28;20549;-93
2023/01/21 00:04:48;;;;;;;60.43;20.13;;;;;;;-2.96;100.00;102369.47;4998798;28;20482;-94
2023/01/21 00:07:16;;;;;;;61.75;20.60;;;;;;;-2.96;100.00;102364.16;4998794;28;20276;-92
2023/01/21 00:09:57;;;;;;;59.95;20.27;;;;;;;-2.93;100.00;102374.59;4999182;28;20033;-93
2023/01/21 00:12:25;;;;;;;59.75;21.15;;;;;;;-2.95;100.00;102380.00;4998138;28;20084;-94
2023/01/21 00:14:59;;;;;;;75.10;21.88;;;;;;;-2.87;100.00;102393.69;4998370;28;20076;-93
2023/01/21 00:17:34;;;;;;;66.97;21.77;;;;;;;-2.96;100.00;102390.72;4968199;28;20034;-93
2023/01/21 00:20:07;;;;;;;58.90;20.77;;;;;;;-2.99;100.00;102399.72;4998444;28;20288;-93
2023/01/21 00:22:32;;;;;;;61.53;20.73;;;;;;;-2.91;100.00;102386.00;4982331;28;20029;-93
2023/01/21 00:25:07;;;;;;;60.23;20.20;;;;;;;-2.77;100.00;102407.28;4998135;28;20071;-93
2023/01/21 00:27:33;;;;;;;59.47;20.73;;;;;;;-2.82;100.00;102415.53;4998326;28;20376;-93
2023/01/21 00:29:59;;;;;;;66.55;20.77;;;;;;;-2.92;100.00;102401.09;4998281;28;20589;-93
2023/01/21 00:32:27;;;;;;;63.37;19.87;;;;;;;-2.89;100.00;102408.03;4997475;28;20045;-93
2023/01/21 00:34:53;;;;;;;68.00;21.80;;;;;;;-2.99;100.00;102402.38;4984875;28;20276;-92
2023/01/21 00:37:42;;;;;;;;;;;;;;;;;;;;;
2023/01/21 00:40:13;;;;;;;62.63;20.98;;;;;;;-3.06;100.00;102406.31;5008771;28;20525;-92
2023/01/21 00:42:45;;;;;;;65.43;21.67;;;;;;;-3.10;100.00;102410.09;4982479;28;20037;-92
2023/01/21 00:45:12;;;;;;;65.20;20.67;;;;;;;-3.15;100.00;102410.38;4997185;28;20026;-92
2023/01/21 00:47:43;;;;;;;65.65;19.85;;;;;;;-3.10;100.00;102426.03;4998110;28;20049;-93
2023/01/21 00:50:37;;;;;;;63.75;20.85;;;;;;;-3.09;100.00;102427.75;4997664;28;20026;-92
2023/01/21 00:53:06;;;;;;;58.88;19.60;;;;;;;-3.15;100.00;102428.94;4982069;28;20124;-92
2023/01/21 00:55:39;;;;;;;62.60;20.15;;;;;;;-3.19;100.00;102432.72;5014381;28;20040;-92
2023/01/21 00:58:12;;;;;;;62.77;20.47;;;;;;;-3.21;100.00;102438.09;5015093;28;20080;-94
2023/01/21 01:00:37;;;;;;;66.97;20.80;;;;;;;-3.17;100.00;102450.28;4997447;28;20355;-92
2023/01/21 01:03:08;;;;;;;60.73;21.00;;;;;;;-3.24;100.00;102443.59;4997016;28;20494;-92
2023/01/21 01:05:33;;;;;;;59.20;21.00;;;;;;;-3.16;100.00;102456.44;4997343;28;20493;-91
2023/01/21 01:08:11;;;;;;;62.53;21.10;;;;;;;-3.21;100.00;102462.00;4997383;28;20030;-91
2023/01/21 01:10:44;;;;;;;60.63;21.00;;;;;;;-3.23;100.00;102465.72;4967584;28;20339;-91
2023/01/21 01:13:09;;;;;;;67.45;21.77;;;;;;;-3.28;100.00;102463.28;4996692;28;20030;-91
2023/01/21 01:15:46;;;;;;;66.13;20.80;;;;;;;-3.19;100.00;102480.50;4997819;28;20064;-91
2023/01/21 01:18:14;;;;;;;67.85;22.50;;;;;;;-3.21;100.00;102485.91;4981415;28;20041;-91
2023/01/21 01:20:46;;;;;;;68.65;23.10;;;;;;;-3.29;100.00;102484.59;4980407;28;20034;-91
2023/01/21 01:23:11;;;;;;;66.70;22.40;;;;;;;-3.26;100.00;102498.59;5013638;28;20042;-90
2023/01/21 01:25:42;;;;;;;70.60;21.40;;;;;;;-3.33;100.00;102491.91;4996557;28;20038;-91
2023/01/21 01:28:08;;;;;;;67.35;21.73;;;;;;;-3.32;100.00;102498.94;4996748;28;20469;-90
2023/01/21 01:30:36;;;;;;;72.53;23.63;;;;;;;-3.25;100.00;102518.03;4996110;28;20033;-90
2023/01/21 01:33:01;;;;;;;75.28;22.65;;;;;;;-3.28;100.00;102515.53;4996252;28;20030;-90
2023/01/21 01:35:31;;;;;;;74.03;23.77;;;;;;;-3.32;100.00;102517.50;4996578;28;20025;-90
2023/01/21 01:38:07;;;;;;;;;;;;;;;;;;;;;
2023/01/21 01:40:36;;;;;;;78.95;23.02;;;;;;;-3.36;100.00;102519.47;5014828;28;20056;-90
2023/01/21 01:43:01;;;;;;;66.93;22.23;;;;;;;-3.27;100.00;102538.50;4998294;28;20022;-91
2023/01/21 01:45:27;;;;;;;70.77;22.70;;;;;;;-3.34;100.00;102535.31;4997360;28;20093;-90
2023/01/21 01:48:00;;;;;;;71.70;24.77;;;;;;;-3.36;100.00;102530.06;4996576;28;20040;-90
2023/01/21 01:50:40;;;;;;;71.00;24.05;;;;;;;-3.39;100.00;102532.91;4997418;28;20034;-90
2023/01/21 01:53:09;;;;;;;74.60;23.92;;;;;;;-3.33;100.00;102537.03;4997200;28;20220;-90
2023/01/21 01:55:37;;;;;;;71.78;23.55;;;;;;;-3.43;100.00;102531.34;4996147;28;20033;-90
2023/01/21 01:58:07;;;;;;;75.63;24.03;;;;;;;-3.45;100.00;102543.84;4996806;28;20113;-90
2023/01/21 02:00:33;;;;;;;75.10;24.00;;;;;;;-3.39;100.00;102545.31;4996125;28;20272;-89
2023/01/21 02:05:46;;;;;;;76.22;24.58;;;;;;;-3.36;100.00;102561.09;5014635;28;20321;-90
2023/01/21 02:08:23;;;;;;;75.15;23.45;;;;;;;-3.43;100.00;102555.22;5007264;28;20048;-90
2023/01/21 02:10:49;;;;;;;69.53;24.80;;;;;;;-3.48;100.00;102551.09;5027222;28;20041;-89
2023/01/21 02:13:18;;;;;;;77.50;25.00;;;;;;;-3.52;100.00;102555.72;5020294;28;20324;-91
2023/01/21 02:15:59;;;;;;;75.22;25.02;;;;;;;-3.56;100.00;102560.34;4997040;28;20025;-90
2023/01/21 02:19:08;;;;;;;75.80;25.00;;;;;;;-3.47;100.00;102582.03;4996661;28;20398;-90
2023/01/21 02:21:44;;;;;;;76.75;24.60;;;;;;;-3.48;100.00;102590.91;4977157;28;20111;-90
2023/01/21 02:24:13;;;;;;;77.10;26.98;;;;;;;-3.48;100.00;102597.09;4976665;28;20051;-90
2023/01/21 02:26:57;;;;;;;82.68;25.60;;;;;;;-3.48;100.00;102590.91;4976992;28;20038;-90
2023/01/21 02:29:38;;;;;;;87.82;26.83;;;;;;;-3.48;100.00;102597.09;4990597;28;20471;-91
2023/01/21 02:32:33;;;;;;;76.53;26.03;;;;;;;-3.54;100.00;102584.16;4981375;28;20046;-90
2023/01/21 02:35:23;;;;;;;82.70;26.48;;;;;;;-3.49;100.00;102592.72;4977154;28;20456;-90
2023/01/21 02:38:10;;;;;;;80.25;27.95;;;;;;;-3.49;100.00;102597.19;4980124;28;20026;-90
2023/01/21 02:40:38;;;;;;;83.63;27.27;;;;;;;-3.49;100.00;102598.03;4980212;28;20042;-90
2023/01/21 02:43:17;;;;;;;78.40;26.52;;;;;;;-3.50;100.00;102596.31;4997368;28;20030;-90
2023/01/21 02:45:54;;;;;;;87.57;27.40;;;;;;;-3.60;100.00;102587.09;4980350;28;20046;-90
2023/01/21 02:48:26;;;;;;;92.20;28.77;;;;;;;-3.56;100.00;102601.94;4980241;28;20042;-90
2023/01/21 02:50:53;;;;;;;89.80;30.83;;;;;;;-3.59;100.00;102602.09;4982552;28;20509;-90
2023/01/21 02:53:31;;;;;;;90.85;28.25;;;;;;;-3.55;100.00;102611.63;5000241;28;20091;-90
2023/01/21 02:56:02;;;;;;;88.88;28.83;;;;;;;-3.61;100.00;102598.69;5015497;28;20375;-90
2023/01/21 02:58:32;;;;;;;94.47;30.60;;;;;;;-3.58;100.00;102617.09;4999538;28;20034;-90
2023/01/21 03:01:13;;;;;;;95.68;29.67;;;;;;;-3.54;100.00;102629.28;5016864;28;20474;-90
2023/01/21 03:03:55;;;;;;;90.78;30.38;;;;;;;-3.54;100.00;102631.94;5017173;28;20022;-91
2023/01/21 03:06:59;;;;;;;86.20;29.60;;;;;;;-3.59;100.00;102631.28;4999343;28;20454;-90
2023/01/21 03:09:32;;;;;;;87.57;29.17;;;;;;;-3.60;100.00;102622.47;4999676;28;20117;-90
2023/01/21 03:12:39;;;;;;;100.67;29.63;;;;;;;-3.65;100.00;102618.34;4999138;28;20042;-89
2023/01/21 03:18:34;;;;;;;86.93;29.73;;;;;;;-3.69;100.00;102620.31;4909732;29;20088;-90
2023/01/21 03:21:06;;;;;;;87.78;28.45;;;;;;;-3.70;100.00;102614.13;4991524;28;20084;-90
2023/01/21 03:23:41;;;;;;;85.93;29.08;;;;;;;-3.63;100.00;102635.91;5015285;28;20029;-90
2023/01/21 03:26:12;;;;;;;88.40;28.47;;;;;;;-3.62;100.00;102634.09;5016390;28;20038;-90
2023/01/21 03:28:44;;;;;;;85.97;27.48;;;;;;;-3.64;100.00;102636.00;5015054;28;20056;-90
2023/01/21 03:31:20;;;;;;;85.22;27.65;;;;;;;-3.68;100.00;102634.41;5015168;28;20087;-89
2023/01/21 03:33:47;;;;;;;84.82;27.92;;;;;;;-3.68;100.00;102634.41;5015394;28;20033;-89
2023/01/21 03:36:25;;;;;;;87.13;27.10;;;;;;;-3.75;100.00;102634.75;4998627;28;20038;-90
2023/01/21 03:38:58;;;;;;;80.67;26.77;;;;;;;-3.75;100.00;102639.16;5015516;28;20184;-89
2023/01/21 03:41:32;;;;;;;84.18;26.83;;;;;;;-3.76;100.00;102646.28;4998556;28;20467;-90
2023/01/21 03:43:59;;;;;;;79.80;27.15;;;;;;;-3.82;100.00;102640.41;5016032;28;20026;-89
2023/01/21 03:46:37;;;;;;;82.43;26.92;;;;;;;-3.74;100.00;102659.47;5015586;28;20041;-89
2023/01/21 03:49:21;;;;;;;83.38;25.70;;;;;;;-3.74;100.00;102662.13;4998821;28;20042;-89
2023/01/21 03:51:57;;;;;;;88.03;26.27;;;;;;;-3.77;100.00;102668.44;4998274;28;20076;-90
2023/01/21 03:54:23;;;;;;;83.45;25.25;;;;;;;-3.86;100.00;102655.63;4999066;28;20030;-89
2023/01/21 03:56:49;;;;;;;91.75;26.27;;;;;;;-3.84;100.00;102664.34;4998098;28;20474;-89
2023/01/21 03:59:14;;;;;;;78.67;26.30;;;;;;;-3.83;100.00;102668.75;5014756;28;20025;-89
2023/01/21 04:01:40;;;;;;;79.47;25.17;;;;;;;-3.84;100.00;102666.16;4981897;28;20498;-89
2023/01/21 04:04:06;;;;;;;79.35;24.42;;;;;;;-3.89;100.00;102664.59;5014377;28;20026;-89
2023/01/21 04:06:32;;;;;;;74.28;23.23;;;;;;;-3.85;100.00;102675.94;4981556;28;20121;-89
2023/01/21 04:08:58;;;;;;;72.40;24.97;;;;;;;-3.86;100.00;102671.53;5015608;28;20087;-89
2023/01/21 04:11:25;;;;;;;82.72;23.45;;;;;;;-3.90;100.00;102665.56;5015487;28;20030;-89
2023/01/21 04:13:53;;;;;;;73.83;22.73;;;;;;;-3.90;100.00;102668.22;5015481;28;20446;-89
2023/01/21 04:16:19;;;;;;;72.30;22.58;;;;;;;-3.89;100.00;102663.75;4997860;28;20037;-89
2023/01/21 04:18:44;;;;;;;77.97;23.67;;;;;;;-3.89;100.00;102677.84;4997935;28;20033;-89
2023/01/21 04:21:10;;;;;;;78.63;22.67;;;;;;;-3.82;100.00;102697.00;5014333;28;20036;-89
2023/01/21 04:23:38;;;;;;;75.87;22.77;;;;;;;-3.86;100.00;102689.25;5022175;28;20026;-89
2023/01/21 04:26:03;;;;;;;80.07;22.17;;;;;;;-3.78;100.00;102700.34;5019587;28;20494;-88
2023/01/21 04:28:29;;;;;;;76.17;23.63;;;;;;;-3.88;100.00;102687.53;5016575;28;20029;-92
2023/01/21 04:30:54;;;;;;;69.83;22.37;;;;;;;-3.87;100.00;102693.69;4997495;28;20404;-89
2023/01/21 04:33:21;;;;;;;70.27;21.33;;;;;;;-3.87;100.00;102693.69;4997593;28;20395;-88
2023/01/21 04:35:46;;;;;;;70.32;22.38;;;;;;;-3.90;100.00;102689.44;4981708;28;20408;-88
2023/01/21 04:38:12;;;;;;;70.45;22.08;;;;;;;-3.96;100.00;102689.69;4965073;28;20066;-88
2023/01/21 04:40:38;;;;;;;66.07;21.40;;;;;;;-3.93;100.00;102691.34;4997345;28;20417;-88
2023/01/21 04:43:06;;;;;;;71.70;22.30;;;;;;;-3.94;100.00;102693.16;4997274;28;20033;-88
2023/01/21 04:45:33;;;;;;;75.85;22.05;;;;;;;-3.99;100.00;102686.34;4997192;28;20332;-88
2023/01/21 04:47:59;;;;;;;72.82;21.13;;;;;;;-4.01;100.00;102696.19;4999136;28;20029;-89
2023/01/21 04:50:24;;;;;;;74.97;23.30;;;;;;;-3.97;100.00;102708.34;4983837;28;20036;-89
2023/01/21 04:52:52;;;;;;;73.10;21.83;;;;;;;-3.98;100.00;102715.44;4999240;28;20046;-88
2023/01/21 04:55:17;;;;;;;74.35;21.67;;;;;;;-3.99;100.00;102718.16;4997778;28;20916;-88
2023/01/21 04:57:44;;;;;;;74.45;21.85;;;;;;;-4.03;100.00;102708.63;5014313;28;20130;-88
2023/01/21 05:00:10;;;;;;;74.00;22.53;;;;;;;-4.06;100.00;102715.81;4980946;28;20128;-88
2023/01/21 05:02:36;;;;;;;70.60;22.05;;;;;;;-3.99;100.00;102731.44;4996632;28;20450;-88
2023/01/21 05:05:01;;;;;;;68.63;21.43;;;;;;;-4.06;100.00;102723.78;4996785;28;20372;-88
2023/01/21 05:07:27;;;;;;;69.47;21.48;;;;;;;-4.02;100.00;102731.59;4997402;28;20092;-88
2023/01/21 05:09:52;;;;;;;78.33;22.60;;;;;;;-4.12;100.00;102723.19;4996884;28;20083;-89
2023/01/21 05:12:17;;;;;;;74.90;21.93;;;;;;;-4.11;100.00;102741.69;4997038;28;20107;-88
2023/01/21 05:14:45;;;;;;;69.43;22.13;;;;;;;-4.07;100.00;102743.25;4996916;28;20405;-88
2023/01/21 05:17:10;;;;;;;68.68;21.70;;;;;;;-4.14;100.00;102733.03;5014401;28;20125;-88
2023/01/21 05:19:43;;;;;;;68.23;21.30;;;;;;;-4.09;100.00;102746.91;4997068;28;20029;-88
2023/01/21 05:22:09;;;;;;;80.18;21.83;;;;;;;-4.14;100.00;102730.38;4981693;28;20042;-88
2023/01/21 05:24:34;;;;;;;75.57;21.23;;;;;;;-4.07;100.00;102751.22;4964328;28;20090;-88
2023/01/21 05:26:59;;;;;;;83.23;22.83;;;;;;;-4.11;100.00;102733.72;4996315;28;20169;-88
2023/01/21 05:29:25;;;;;;;75.28;20.58;;;;;;;-4.08;100.00;102752.13;5013025;28;20276;-88
2023/01/21 05:31:50;;;;;;;79.87;22.67;;;;;;;-4.07;100.00;102755.66;4996819;28;20034;-88
2023/01/21 05:34:16;;;;;;;78.17;21.77;;;;;;;-4.13;100.00;102751.50;4996622;28;20466;-88
2023/01/21 05:36:44;;;;;;;73.53;20.63;;;;;;;-4.12;100.00;102758.53;4996786;28;20537;-88
2023/01/21 05:39:09;;;;;;;69.53;21.25;;;;;;;-4.11;100.00;102751.44;4980741;28;20034;-88
2023/01/21 05:41:34;;;;;;;67.50;21.10;;;;;;;-4.14;100.00;102754.25;5012719;28;20500;-88
2023/01/21 05:44:00;;;;;;;67.63;20.67;;;;;;;-4.18;100.00;102761.47;5012918;28;20352;-88
2023/01/21 05:46:25;;;;;;;64.73;20.07;;;;;;;-4.19;100.00;102757.13;4996422;28;20044;-89
2023/01/21 05:48:51;;;;;;;75.67;22.23;;;;;;;-4.17;100.00;102763.19;4980110;28;20029;-89
2023/01/21 05:51:16;;;;;;;76.90;22.20;;;;;;;-4.13;100.00;102763.91;5013495;28;20497;-89
2023/01/21 05:53:42;;;;;;;75.93;21.75;;;;;;;-4.16;100.00;102770.22;4980755;28;20030;-89
2023/01/21 05:56:07;;;;;;;72.33;20.70;;;;;;;-4.18;100.00;102760.63;4996146;28;20128;-88
2023/01/21 05:58:33;;;;;;;70.03;21.67;;;;;;;-4.15;100.00;102777.25;4979879;28;20033;-88
2023/01/21 06:00:58;;;;;;;81.82;23.17;;;;;;;-4.16;100.00;102780.81;5014273;28;20041;-88
2023/01/21 06:03:25;;;;;;;73.43;21.40;;;;;;;-4.18;100.00;102782.66;4996195;28;20026;-88
2023/01/21 06:05:50;;;;;;;68.70;21.15;;;;;;;-4.20;100.00;102781.03;5013986;28;20092;-88
2023/01/21 06:08:16;;;;;;;72.67;21.60;;;;;;;-4.25;100.00;102782.13;5012667;28;20038;-88
2023/01/21 06:10:42;;;;;;;70.90;21.95;;;;;;;-4.32;100.00;102774.53;5015591;28;20022;-88
2023/01/21 06:13:11;;;;;;;68.97;20.37;;;;;;;-4.28;100.00;102786.69;5016337;28;20049;-88
2023/01/21 06:15:36;;;;;;;65.78;19.92;;;;;;;-4.32;100.00;102785.97;5017126;28;20030;-88
2023/01/21 06:18:02;;;;;;;76.32;23.08;;;;;;;-4.34;100.00;102784.31;5000034;28;20034;-88
2023/01/21 06:20:30;;;;;;;75.82;20.80;;;;;;;-4.34;100.00;102795.78;5000878;28;20054;-88
2023/01/21 06:22:57;;;;;;;73.22;21.95;;;;;;;-4.37;100.00;102795.94;4999672;28;20037;-88
2023/01/21 06:25:24;;;;;;;72.00;21.10;;;;;;;-4.37;100.00;102793.28;5016045;28;20398;-88
2023/01/21 06:27:49;;;;;;;74.32;20.58;;;;;;;-4.39;100.00;102789.84;5016421;28;20033;-88
2023/01/21 06:30:18;;;;;;;70.23;20.13;;;;;;;-4.41;100.00;102797.84;4983373;28;20129;-88
2023/01/21 06:32:43;;;;;;;72.60;20.55;;;;;;;-4.46;100.00;102801.63;4999729;28;20030;-88
2023/01/21 06:35:09;;;;;;;73.63;21.77;;;;;;;-4.41;100.00;102813.75;5017233;28;20029;-88
2023/01/21 06:37:39;;;;;;;74.57;21.33;;;;;;;-4.46;100.00;102809.59;5018880;28;20040;-89
2023/01/21 06:40:07;;;;;;;64.32;19.65;;;;;;;-4.49;100.00;102813.22;5006766;28;20030;-89
2023/01/21 06:42:32;;;;;;;71.53;20.38;;;;;;;-4.50;100.00;102824.78;5021873;28;20057;-88
2023/01/21 06:45:00;;;;;;;73.17;22.70;;;;;;;-4.47;100.00;102842.34;5000035;28;20061;-93
2023/01/21 06:47:25;;;;;;;72.88;20.38;;;;;;;-4.53;100.00;102835.50;4984509;28;20505;-94
2023/01/21 06:49:51;;;;;;;78.40;21.03;;;;;;;-4.50;100.00;102840.66;5017331;28;20029;-93
2023/01/21 06:52:16;;;;;;;73.67;20.40;;;;;;;-4.45;100.00;102843.97;4999392;28;20511;-93
2023/01/21 06:54:42;;;;;;;73.90;20.93;;;;;;;-4.54;100.00;102839.09;4984283;28;20044;-93
2023/01/21 06:57:08;;;;;;;75.68;23.00;;;;;;;-4.59;100.00;102841.94;5000108;28;20026;-88
2023/01/21 06:59:34;;;;;;;78.93;21.42;;;;;;;-4.58;100.00;102837.50;4984370;28;20033;-89
2023/01/21 07:02:02;;;;;;;73.67;20.73;;;;;;;-4.52;100.00;102855.75;5019094;28;20033;-88
2023/01/21 07:04:27;;;;;;;73.07;20.02;;;;;;;-4.63;100.00;102853.59;5017661;28;20038;-89
2023/01/21 07:06:53;;;;;;;76.13;20.43;;;;;;;-4.68;100.00;102852.06;4999280;28;20030;-88
2023/01/21 07:09:18;;;;;;;68.20;22.00;;;;;;;-4.71;100.00;102853.09;4999350;28;20470;-87
2023/01/21 07:11:46;;;;;;;67.97;21.23;;;;;;;-4.73;100.00;102860.22;5015705;28;20092;-87
2023/01/21 07:14:50;;;;;;;77.30;21.27;;;;;;;-4.66;100.00;102877.56;4984040;28;20065;-86
2023/01/21 07:17:16;;;;;;;74.93;20.08;;;;;;;-4.76;100.00;102869.16;5017074;28;20026;-88
2023/01/21 07:19:41;;;;;;;71.97;20.30;;;;;;;-4.74;100.00;102877.03;4982983;28;20045;-88
2023/01/21 07:22:07;;;;;;;77.55;21.58;;;;;;;-4.76;100.00;102876.25;4998154;28;20034;-88
2023/01/21 07:24:33;;;;;;;71.83;20.17;;;;;;;-4.69;100.00;102880.34;4998682;28;20030;-88
2023/01/21 07:26:58;;;;;;;72.50;20.88;;;;;;;-4.68;100.00;102882.09;5000472;28;20038;-88
2023/01/21 07:29:24;;;;;;;71.22;20.30;;;;;;;-4.66;100.00;102898.75;5001597;28;20057;-88
2023/01/21 07:31:49;;;;;;;81.83;22.10;;;;;;;-4.62;100.00;102902.13;5001931;28;20073;-89
2023/01/21 07:34:18;;;;;;;80.72;22.00;;;;;;;-4.68;100.00;102897.09;5018242;28;20026;-88
2023/01/21 07:36:45;;;;;;;76.93;22.23;;;;;;;-4.67;100.00;102897.03;5019256;28;20041;-88
2023/01/21 07:39:11;;;;;;;78.50;21.50;;;;;;;-4.63;100.00;102898.63;5018021;28;20397;-88
2023/01/21 07:41:39;;;;;;;84.28;22.35;;;;;;;-4.59;100.00;102909.97;5009520;28;20029;-88
2023/01/21 07:44:04;;;;;;;75.10;22.03;;;;;;;-4.56;100.00;102925.72;5035356;28;20044;-88
2023/01/21 07:46:33;;;;;;;71.38;19.98;;;;;;;-4.52;100.00;102923.81;5001737;28;20768;-88
2023/01/21 07:48:59;;;;;;;73.10;20.35;;;;;;;-4.54;100.00;102923.03;5001592;28;20065;-88
2023/01/21 07:51:24;;;;;;;80.63;22.13;;;;;;;-4.60;100.00;102922.34;5017685;28;20033;-89
2023/01/21 07:53:52;;;;;;;74.27;20.73;;;;;;;-4.58;100.00;102922.28;5017477;28;20030;-88
2023/01/21 07:56:19;;;;;;;79.82;21.75;;;;;;;-4.53;100.00;102925.59;5035067;28;20061;-88
2023/01/21 07:58:45;;;;;;;77.55;22.63;;;;;;;-4.51;100.00;102923.72;5017663;28;20466;-88
2023/01/21 08:01:11;;;;;;;81.43;20.88;;;;;;;-4.41;100.00;102940.97;5017348;28;20083;-88
2023/01/21 08:03:37;;;;;;;73.83;20.10;;;;;;;-4.37;100.00;102936.41;5017758;28;20120;-88
2023/01/21 08:06:04;;;;;;;71.95;22.35;;;;;;;-4.29;100.00;102947.53;5017501;28;20029;-88
2023/01/21 08:08:30;;;;;;;81.85;22.40;;;;;;;-4.23;100.00;102954.34;5017678;28;20025;-87
2023/01/21 08:10:55;;;;;;;79.43;21.40;;;;;;;-4.07;100.00;102968.66;5017880;28;20029;-88
2023/01/21 08:13:21;;;;;;;83.10;22.10;;;;;;;-3.88;100.00;102975.81;5017339;28;20033;-88
2023/01/21 08:15:52;;;;;;;83.38;22.08;;;;;;;-3.71;100.00;102977.69;5018199;28;20469;-88
2023/01/21 08:18:18;;;;;;;85.90;23.77;;;;;;;-3.53;100.00;102981.28;5017073;28;20033;-87
2023/01/21 08:20:43;;;;;;;88.82;23.52;;;;;;;-3.47;100.00;102965.09;5017285;28;20282;-87
2023/01/21 08:23:09;;;;;;;90.55;23.73;;;;;;;-3.33;100.00;102975.06;5017379;28;20470;-87
2023/01/21 08:25:34;;;;;;;100.97;23.67;;;;;;;-3.18;100.00;102981.41;5034940;28;20026;-88
2023/01/21 08:28:00;;;;;;;100.70;25.17;;;;;;;-3.02;100.00;102986.88;5016827;28;20036;-88
2023/01/21 08:30:25;;;;;;;95.70;25.50;;;;;;;-2.92;100.00;102993.47;5017657;28;20041;-88
2023/01/21 08:32:51;;;;;;;98.35;25.25;;;;;;;-2.88;100.00;102988.84;5018605;28;20061;-88
2023/01/21 08:35:16;;;;;;;91.93;24.70;;;;;;;-2.76;100.00;103005.97;5020228;28;20029;-88
2023/01/21 08:37:44;;;;;;;99.27;25.23;;;;;;;-2.70;100.00;102995.94;5017222;28;20466;-92
2023/01/21 08:40:10;;;;;;;101.60;26.75;;;;;;;-2.56;100.00;103002.34;5034727;28;20379;-88
2023/01/21 08:42:36;;;;;;;94.50;25.77;;;;;;;-2.57;100.00;103004.16;5017066;28;20037;-88
2023/01/21 08:45:02;;;;;;;96.83;25.33;;;;;;;-2.48;100.00;103006.34;5016710;28;20487;-88
2023/01/21 08:47:27;;;;;;;100.60;25.17;;;;;;;-2.43;100.00;103007.94;5016726;28;20083;-87
2023/01/21 08:49:52;;;;;;;101.60;26.60;;;;;;;-2.35;100.00;103009.25;5017069;28;20389;-88
2023/01/21 08:52:19;;;;;;;97.37;25.77;;;;;;;-2.25;100.00;103022.06;5001267;28;20084;-88
2023/01/21 08:54:45;;;;;;;91.32;25.85;;;;;;;-2.14;100.00;103036.56;5036233;28;20037;-88
2023/01/21 08:57:11;;;;;;;94.17;23.63;;;;;;;-2.15;100.00;103015.34;5000180;28;20056;-89
2023/01/21 08:59:36;;;;;;;96.22;25.73;;;;;;;-2.04;100.00;103036.06;5016378;28;20068;-88
2023/01/21 09:02:02;;;;;;;93.97;25.37;;;;;;;-2.00;100.00;103043.81;5034257;28;20454;-88
2023/01/21 09:04:27;;;;;;;92.10;24.75;;;;;;;-2.00;100.00;103038.50;5033927;28;20041;-88
2023/01/21 09:06:53;;;;;;;89.73;25.90;;;;;;;-1.99;100.00;103032.25;4999853;28;20876;-88
2023/01/21 09:09:18;;;;;;;98.67;25.77;;;;;;;-1.93;100.00;103033.72;4999793;28;20033;-88
2023/01/21 09:11:44;;;;;;;92.57;25.47;;;;;;;-1.79;100.00;103040.97;5016482;28;20029;-89
2023/01/21 09:14:09;;;;;;;97.00;26.15;;;;;;;-1.75;100.00;103036.38;5016113;28;20034;-88
2023/01/21 09:16:35;;;;;;;92.93;24.90;;;;;;;-1.65;100.00;103042.94;4999640;28;20120;-88
2023/01/21 09:19:01;;;;;;;97.10;27.58;;;;;;;-1.55;100.00;103046.81;5033957;28;20405;-89
2023/01/21 09:21:28;;;;;;;93.53;25.83;;;;;;;-1.60;100.00;103041.72;5016686;28;20465;-88
2023/01/21 09:23:54;;;;;;;94.28;25.52;;;;;;;-1.61;100.00;103037.34;5015275;28;20284;-89
2023/01/21 09:26:22;;;;;;;85.38;24.10;;;;;;;-1.54;100.00;103047.66;5033711;28;20032;-88
2023/01/21 09:28:53;;;;;;;87.05;25.13;;;;;;;-1.54;100.00;103029.03;5016025;28;20025;-89
2023/01/21 09:31:23;;;;;;;80.68;23.23;;;;;;;-1.53;100.00;103036.09;5034386;28;20025;-88
2023/01/21 09:33:52;;;;;;;92.33;24.43;;;;;;;-1.45;100.00;103052.50;5016084;28;20080;-88
2023/01/21 09:36:20;;;;;;;88.57;24.13;;;;;;;-1.41;100.00;103046.91;5015779;28;20272;-88
2023/01/21 09:38:47;;;;;;;89.75;23.90;;;;;;;-1.33;100.00;103059.84;5016123;28;20490;-89
2023/01/21 09:41:44;;;;;;;88.68;23.90;;;;;;;-1.21;100.00;103065.44;5000635;28;20087;-89
2023/01/21 09:44:57;;;;;;;81.57;24.17;;;;;;;-1.20;100.00;103067.16;5016264;28;20065;-89
2023/01/21 09:47:32;;;;;;;85.80;22.70;;;;;;;-1.25;100.00;103070.06;5004624;28;20029;-90
2023/01/21 09:50:20;;;;;;;88.35;23.35;;;;;;;-1.24;100.00;103079.75;5016228;28;20276;-88
2023/01/21 09:52:48;;;;;;;81.18;23.42;;;;;;;-1.24;100.00;103082.44;5015457;28;20136;-89
2023/01/21 09:55:33;;;;;;;88.75;22.73;;;;;;;-1.21;100.00;103078.75;5033762;28;20045;-88
2023/01/21 09:58:22;;;;;;;82.45;23.27;;;;;;;-1.07;100.00;103100.19;5033235;28;20041;-89
2023/01/21 10:01:02;;;;;;;78.20;22.93;;;;;;;-1.11;100.00;103086.19;5015751;28;20028;-89
2023/01/21 10:03:37;;;;;;;88.22;23.05;;;;;;;-1.02;100.00;103094.59;5016304;28;20307;-89
2023/01/21 10:06:12;;;;;;;86.28;22.20;;;;;;;-0.94;100.00;103108.38;5015843;28;20417;-89
2023/01/21 10:08:56;;;;;;;90.57;22.88;;;;;;;-0.87;100.00;103115.09;5016340;28;20493;-89
2023/01/21 10:11:44;;;;;;;98.72;24.08;;;;;;;-0.77;100.00;103115.41;5018280;28;20037;-90
2023/01/21 10:14:41;;;;;;;85.90;23.83;;;;;;;-0.77;100.00;103105.63;5045619;28;20037;-89
2023/01/21 10:17:56;;;;;;;86.60;23.70;;;;;;;-0.70;100.00;103116.81;5016960;28;20767;-89
2023/01/21 10:20:42;;;;;;;84.60;23.20;;;;;;;-0.78;100.00;103132.38;4998030;28;20132;-89
2023/01/21 10:23:19;;;;;;;82.28;23.17;;;;;;;-0.88;100.00;103113.34;5016339;28;20462;-89
2023/01/21 10:25:49;;;;;;;78.15;21.38;;;;;;;-0.89;100.00;103112.50;5015167;28;20036;-89
2023/01/21 10:28:24;;;;;;;79.37;21.87;;;;;;;-0.89;100.00;103114.28;5016147;28;20065;-93
2023/01/21 10:30:52;;;;;;;78.70;22.55;;;;;;;-0.91;100.00;103119.72;5015114;28;20272;-91
2023/01/21 10:33:23;;;;;;;84.57;22.85;;;;;;;-0.88;100.00;103119.53;5033702;28;20038;-89
2023/01/21 10:36:07;;;;;;;81.35;22.55;;;;;;;-0.72;100.00;103126.69;5033493;28;20021;-90
2023/01/21 10:38:44;;;;;;;86.38;23.58;;;;;;;-0.62;100.00;103127.03;5015290;28;20041;-89
2023/01/21 10:41:19;;;;;;;84.97;23.43;;;;;;;-0.52;100.00;103124.72;5015314;28;20033;-89
2023/01/21 10:44:10;;;;;;;92.03;23.30;;;;;;;-0.49;100.00;103124.53;5015410;28;20284;-90
2023/01/21 10:46:53;;;;;;;85.57;22.83;;;;;;;-0.42;100.00;103115.25;5015154;28;20465;-90
2023/01/21 10:49:47;;;;;;;92.05;23.17;;;;;;;-0.19;100.00;103108.59;5033095;28;20127;-90
2023/01/21 10:52:43;;;;;;;86.82;24.45;;;;;;;0.01;100.00;103110.06;5014942;28;20052;-90
2023/01/21 10:55:49;;;;;;;86.40;23.33;;;;;;;0.23;100.00;103106.16;4997167;28;20045;-90
2023/01/21 10:58:22;;;;;;;87.60;24.00;;;;;;;0.40;100.00;103103.31;5019403;28;20284;-90
2023/01/21 11:00:49;;;;;;;88.35;23.23;;;;;;;0.56;100.00;103111.25;5018549;28;20381;-91
2023/01/21 11:03:31;;;;;;;88.63;24.58;;;;;;;0.80;100.00;103082.16;5018828;28;20030;-91
2023/01/21 11:05:59;;;;;;;97.35;24.50;;;;;;;1.44;100.00;103088.81;5018762;28;20123;-91
2023/01/21 11:08:47;;;;;;;85.40;23.73;;;;;;;1.93;100.00;103096.25;5018919;28;20025;-91
2023/01/21 11:11:25;;;;;;;81.30;23.27;;;;;;;2.65;100.00;103094.97;5019103;28;20347;-91
2023/01/21 11:13:55;;;;;;;73.00;22.40;;;;;;;3.10;100.00;103093.50;5019081;28;20036;-91
2023/01/21 11:16:55;;;;;;;74.45;22.45;;;;;;;3.69;100.00;103090.06;5018380;28;20029;-89
2023/01/21 11:19:31;;;;;;;68.40;22.80;;;;;;;3.87;100.00;103100.41;5007781;28;20045;-89
2023/01/21 11:22:22;;;;;;;75.15;24.23;;;;;;;4.31;100.00;103097.94;5018797;28;20040;-90
2023/01/21 11:24:51;;;;;;;67.97;22.08;;;;;;;4.59;100.00;103088.56;5035884;28;20049;-90
2023/01/21 11:27:31;;;;;;;62.00;21.73;;;;;;;4.98;100.00;103094.47;5018483;28;20023;-89
2023/01/21 11:30:01;;;;;;;63.40;22.98;;;;;;;4.99;100.00;103085.44;5017628;28;20436;-91